Time;durP1;ratioP1;P1;durP2;ratioP2;P2;SDS_P1;SDS_P2;PMS_P1;PMS_P2;Temp;Humidity;BMP_temperature;BMP_pressure;BME280_temperature;BME280_humidity;BME280_pressure;Samples;Min_cycle;Max_cycle;Signal;HPM_P1;HPM_P2
2022/08/13 00:02:42;;;;;;;2.25;1.33;;;22.60;81.40;;;;;;5015398;28;20022;-80
2022/08/13 00:05:01;;;;;;;2.30;1.40;;;22.60;81.60;;;;;;5007235;28;20034;-81
2022/08/13 00:07:28;;;;;;;3.85;1.77;;;22.60;81.60;;;;;;5016288;28;20028;-80
2022/08/13 00:09:54;;;;;;;3.05;1.58;;;22.60;81.80;;;;;;5015014;28;20045;-79
2022/08/13 00:15:12;;;;;;;2.72;1.42;;;22.60;81.90;;;;;;5015639;28;20085;-79
2022/08/13 00:17:39;;;;;;;2.60;1.40;;;22.50;81.90;;;;;;4997086;28;20064;-80
2022/08/13 00:20:07;;;;;;;2.25;1.25;;;22.50;81.90;;;;;;4997560;28;20033;-79
2022/08/13 00:22:33;;;;;;;2.72;1.50;;;22.50;81.90;;;;;;5015399;28;20022;-80
2022/08/13 00:25:02;;;;;;;3.15;1.42;;;22.50;82.00;;;;;;4996699;28;20026;-82
2022/08/13 00:27:28;;;;;;;3.08;1.52;;;22.50;81.90;;;;;;5020235;28;20032;-81
2022/08/13 00:29:56;;;;;;;4.50;1.50;;;22.60;81.90;;;;;;5020501;28;20014;-81
2022/08/13 00:32:29;;;;;;;2.72;1.50;;;22.60;81.90;;;;;;5019886;28;20742;-82
2022/08/13 00:34:55;;;;;;;2.38;1.50;;;22.60;82.30;;;;;;5001800;28;20030;-81
2022/08/13 00:37:22;;;;;;;2.58;1.30;;;22.60;81.70;;;;;;5001537;28;20408;-80
2022/08/13 00:39:48;;;;;;;2.30;1.45;;;22.60;81.70;;;;;;5019661;28;20073;-81
2022/08/13 00:42:20;;;;;;;2.75;1.65;;;22.60;81.70;;;;;;5004924;28;20026;-79
2022/08/13 00:44:46;;;;;;;2.80;1.60;;;22.60;81.60;;;;;;5021985;28;20496;-80
2022/08/13 00:49:56;;;;;;;2.92;1.60;;;22.60;81.50;;;;;;5021964;28;20087;-80
2022/08/13 00:52:22;;;;;;;3.03;1.40;;;22.60;81.70;;;;;;5003898;28;20041;-80
2022/08/13 00:54:49;;;;;;;3.05;1.48;;;22.60;81.60;;;;;;5003635;28;20030;-79
2022/08/13 00:57:14;;;;;;;2.45;1.40;;;22.50;82.10;;;;;;5021670;28;20025;-80
2022/08/13 00:59:40;;;;;;;2.05;1.30;;;22.50;81.70;;;;;;5003091;28;20507;-79
2022/08/13 01:02:06;;;;;;;2.50;1.60;;;22.50;81.70;;;;;;5003025;28;20026;-80
2022/08/13 01:04:32;;;;;;;2.25;1.40;;;22.50;81.80;;;;;;5019920;28;20060;-79
2022/08/13 01:07:00;;;;;;;3.60;1.63;;;22.50;81.70;;;;;;5019850;28;20026;-79
2022/08/13 01:09:30;;;;;;;2.15;1.40;;;22.50;82.00;;;;;;5019366;28;20496;-80
2022/08/13 01:11:59;;;;;;;2.22;1.20;;;22.50;81.80;;;;;;5018618;28;20034;-80
2022/08/13 01:14:32;;;;;;;3.13;1.30;;;22.50;81.80;;;;;;5002177;28;20018;-79
2022/08/13 01:17:00;;;;;;;1.63;1.20;;;22.50;81.70;;;;;;5002418;28;20030;-79
2022/08/13 01:19:26;;;;;;;3.17;1.52;;;22.50;81.60;;;;;;5019540;28;20046;-78
2022/08/13 01:21:52;;;;;;;1.85;1.30;;;22.60;81.60;;;;;;5019034;28;20025;-80
2022/08/13 01:24:20;;;;;;;2.30;1.30;;;22.60;81.60;;;;;;4999297;28;20108;-76
2022/08/13 01:26:46;;;;;;;2.13;1.45;;;22.60;81.80;;;;;;5016332;28;20484;-81
2022/08/13 01:29:11;;;;;;;2.17;1.60;;;22.60;81.70;;;;;;5001016;28;20117;-79
2022/08/13 01:31:41;;;;;;;2.55;1.30;;;22.50;81.60;;;;;;5018437;28;20116;-80
2022/08/13 01:34:07;;;;;;;2.17;1.52;;;22.50;81.60;;;;;;5000678;28;20022;-80
2022/08/13 01:36:34;;;;;;;2.10;1.50;;;22.50;81.70;;;;;;5000741;28;20105;-79
2022/08/13 01:39:04;;;;;;;3.50;1.42;;;22.50;81.70;;;;;;5001022;28;20033;-79
2022/08/13 01:41:30;;;;;;;1.92;1.45;;;22.50;81.60;;;;;;5017661;28;20018;-79
2022/08/13 01:44:04;;;;;;;2.17;1.25;;;22.50;81.70;;;;;;5018436;28;20030;-79
2022/08/13 01:50:28;;;;;;;2.00;1.40;;;22.50;81.70;;;;;;5022066;28;20053;-81
2022/08/13 01:51:59;;;;;;;1.75;1.27;;;22.50;81.70;;;;;;5021865;28;20106;-81
2022/08/13 01:54:25;;;;;;;1.85;1.30;;;22.50;82.30;;;;;;5022144;28;20057;-81
2022/08/13 01:56:52;;;;;;;2.83;1.70;;;22.50;81.80;;;;;;5004839;28;20026;-79
2022/08/13 01:59:17;;;;;;;2.92;1.48;;;22.50;81.70;;;;;;5021231;28;20015;-80
2022/08/13 02:01:44;;;;;;;1.92;1.13;;;22.50;81.60;;;;;;5003336;28;20029;-81
2022/08/13 02:04:13;;;;;;;3.22;1.60;;;22.50;81.60;;;;;;5020581;28;20088;-81
2022/08/13 02:06:40;;;;;;;2.58;1.50;;;22.50;81.50;;;;;;5021312;28;20478;-80
2022/08/13 02:09:06;;;;;;;2.05;1.48;;;22.50;81.50;;;;;;5021307;28;20548;-80
2022/08/13 02:11:34;;;;;;;2.25;1.45;;;22.50;81.50;;;;;;5019675;28;20026;-79
2022/08/13 02:14:03;;;;;;;1.80;1.30;;;22.60;81.70;;;;;;5020298;28;20029;-81
2022/08/13 02:16:31;;;;;;;2.60;1.50;;;22.50;81.60;;;;;;5002130;28;20520;-80
2022/08/13 02:18:56;;;;;;;2.42;1.58;;;22.50;81.50;;;;;;5020132;28;20033;-81
2022/08/13 02:21:25;;;;;;;2.38;1.30;;;22.50;81.60;;;;;;5019335;28;20108;-79
2022/08/13 02:23:58;;;;;;;2.20;1.42;;;22.50;82.10;;;;;;5001156;28;20416;-80
2022/08/13 02:26:27;;;;;;;2.38;1.60;;;22.50;81.50;;;;;;5001034;28;20018;-80
2022/08/13 02:28:54;;;;;;;3.25;1.52;;;22.50;81.60;;;;;;5001534;28;20104;-79
2022/08/13 02:31:21;;;;;;;2.20;1.50;;;22.50;81.60;;;;;;5001420;28;20029;-79
2022/08/13 02:33:47;;;;;;;2.65;1.50;;;22.50;81.60;;;;;;4997722;28;20385;-79
2022/08/13 02:36:14;;;;;;;2.67;1.63;;;22.40;81.50;;;;;;5012268;28;20028;-79
2022/08/13 02:38:42;;;;;;;1.73;1.35;;;22.40;81.50;;;;;;5000481;28;20030;-79
2022/08/13 02:43:53;;;;;;;3.63;1.60;;;22.40;81.70;;;;;;5018246;28;20084;-79
2022/08/13 02:46:21;;;;;;;2.45;1.38;;;22.50;81.50;;;;;;5000129;28;20026;-79
2022/08/13 02:48:48;;;;;;;2.60;1.30;;;22.50;81.50;;;;;;4999857;28;20022;-79
2022/08/13 02:51:14;;;;;;;2.70;1.42;;;22.50;81.50;;;;;;4999252;28;20022;-79
2022/08/13 02:53:41;;;;;;;3.00;1.42;;;22.50;81.50;;;;;;4999035;28;20104;-79
2022/08/13 02:56:08;;;;;;;2.53;1.40;;;22.50;81.50;;;;;;5016863;28;20018;-79
2022/08/13 02:58:34;;;;;;;2.72;1.50;;;22.50;81.60;;;;;;5017431;28;20033;-79
2022/08/13 03:01:02;;;;;;;2.95;1.58;;;22.50;81.50;;;;;;4998501;28;20124;-79
2022/08/13 03:03:28;;;;;;;2.78;1.50;;;22.50;81.50;;;;;;5015704;28;20076;-79
2022/08/13 03:05:54;;;;;;;3.05;1.55;;;22.50;81.60;;;;;;5016927;28;20037;-79
2022/08/13 03:08:20;;;;;;;2.28;1.40;;;22.50;81.60;;;;;;5017040;28;20393;-79
2022/08/13 03:10:46;;;;;;;2.85;1.50;;;22.40;81.60;;;;;;4997754;28;20388;-79
2022/08/13 03:13:32;;;;;;;1.90;1.42;;;22.50;81.60;;;;;;5016603;28;20084;-79
2022/08/13 03:15:57;;;;;;;2.28;1.52;;;22.40;81.50;;;;;;5016235;28;20029;-79
2022/08/13 03:18:24;;;;;;;1.95;1.30;;;22.40;81.50;;;;;;5016272;28;20026;-78
2022/08/13 03:20:50;;;;;;;2.40;1.40;;;22.40;81.60;;;;;;5015619;28;20034;-79
2022/08/13 03:23:15;;;;;;;2.75;1.40;;;22.40;81.60;;;;;;4998722;28;20093;-79
2022/08/13 03:25:41;;;;;;;3.05;1.40;;;22.40;81.70;;;;;;5015861;28;20037;-79
2022/08/13 03:28:06;;;;;;;2.67;1.67;;;22.40;81.60;;;;;;5016542;28;20080;-79
2022/08/13 03:30:34;;;;;;;2.42;1.40;;;22.40;81.50;;;;;;5015647;28;20061;-79
2022/08/13 03:33:07;;;;;;;1.83;1.30;;;22.40;81.40;;;;;;5016242;28;20032;-79
2022/08/13 03:35:35;;;;;;;3.13;1.45;;;22.50;81.50;;;;;;4998072;28;20092;-79
2022/08/13 03:38:01;;;;;;;3.38;1.60;;;22.50;81.40;;;;;;5015917;28;20049;-79
2022/08/13 03:41:00;;;;;;;2.38;1.30;;;22.50;81.60;;;;;;5003258;28;20440;-80
2022/08/13 03:43:16;;;;;;;3.17;1.50;;;22.50;81.60;;;;;;5021057;28;20370;-80
2022/08/13 03:45:42;;;;;;;2.67;1.50;;;22.50;81.70;;;;;;5020954;28;20060;-79
2022/08/13 03:48:08;;;;;;;2.58;1.63;;;22.50;81.50;;;;;;5021207;28;20033;-79
2022/08/13 03:50:33;;;;;;;2.25;1.50;;;22.50;81.50;;;;;;5020121;28;20022;-80
2022/08/13 03:53:01;;;;;;;1.70;1.30;;;22.40;81.50;;;;;;5003086;28;20033;-79
2022/08/13 03:55:26;;;;;;;2.65;1.52;;;22.40;81.60;;;;;;5020195;28;20104;-79
2022/08/13 03:57:52;;;;;;;3.15;1.70;;;22.40;81.50;;;;;;5002463;28;20053;-79
2022/08/13 04:00:17;;;;;;;2.35;1.70;;;22.40;81.50;;;;;;5018557;28;20026;-80
2022/08/13 04:02:43;;;;;;;2.47;1.58;;;22.40;81.50;;;;;;5001200;28;20129;-79
2022/08/13 04:05:14;;;;;;;2.65;1.40;;;22.40;81.60;;;;;;5019005;28;20029;-79
2022/08/13 04:07:40;;;;;;;2.50;1.50;;;22.40;81.60;;;;;;5018431;28;20022;-79
2022/08/13 04:10:06;;;;;;;2.33;1.60;;;22.40;81.50;;;;;;5000791;28;20188;-79
2022/08/13 04:12:31;;;;;;;2.50;1.38;;;22.40;81.60;;;;;;5013531;28;20029;-77
2022/08/13 04:14:57;;;;;;;2.35;1.40;;;22.40;81.70;;;;;;4998485;28;20029;-78
2022/08/13 04:17:22;;;;;;;1.75;1.33;;;22.40;81.50;;;;;;5019745;28;20068;-78
2022/08/13 04:19:48;;;;;;;2.33;1.38;;;22.40;81.40;;;;;;5000973;28;20033;-78
2022/08/13 04:22:13;;;;;;;1.55;1.30;;;22.40;81.30;;;;;;5001432;28;20029;-79
2022/08/13 04:24:40;;;;;;;2.85;1.50;;;22.40;81.30;;;;;;5020026;28;20022;-79
2022/08/13 04:27:06;;;;;;;1.88;1.30;;;22.50;81.40;;;;;;5001642;28;20469;-79
2022/08/13 04:29:32;;;;;;;3.08;1.60;;;22.50;81.60;;;;;;5018985;28;20032;-78
2022/08/13 04:32:01;;;;;;;2.50;1.48;;;22.50;81.50;;;;;;5004112;28;20022;-79
2022/08/13 04:34:28;;;;;;;1.83;1.33;;;22.50;81.40;;;;;;5003163;28;20030;-78
2022/08/13 04:36:55;;;;;;;2.50;1.60;;;22.40;81.30;;;;;;5003096;28;20440;-79
2022/08/13 04:39:20;;;;;;;2.53;1.60;;;22.40;81.30;;;;;;5020763;28;20400;-79
2022/08/13 04:41:46;;;;;;;2.83;1.58;;;22.40;81.40;;;;;;5001691;28;20022;-78
2022/08/13 04:44:12;;;;;;;2.88;1.70;;;22.40;81.40;;;;;;5002085;28;20026;-78
2022/08/13 04:46:38;;;;;;;2.40;1.38;;;22.40;81.40;;;;;;5020253;28;20025;-79
2022/08/13 04:49:04;;;;;;;2.47;1.58;;;22.40;81.40;;;;;;5001874;28;20034;-79
2022/08/13 04:51:32;;;;;;;1.83;1.40;;;22.40;81.40;;;;;;5000880;28;20018;-78
2022/08/13 04:53:58;;;;;;;2.70;1.70;;;22.40;81.40;;;;;;5019652;28;20026;-79
2022/08/13 04:56:23;;;;;;;2.15;1.50;;;22.40;81.40;;;;;;5019259;28;20738;-77
2022/08/13 04:58:49;;;;;;;1.77;1.30;;;22.40;81.50;;;;;;5017076;28;20053;-77
2022/08/13 05:01:14;;;;;;;2.55;1.50;;;22.40;81.40;;;;;;4998462;28;20037;-78
2022/08/13 05:03:41;;;;;;;3.20;1.55;;;22.40;81.20;;;;;;5015300;28;20021;-79
2022/08/13 05:06:17;;;;;;;2.42;1.42;;;22.40;81.10;;;;;;4998496;28;20022;-78
2022/08/13 05:08:43;;;;;;;2.60;1.40;;;22.50;81.10;;;;;;5014382;28;20022;-78
2022/08/13 05:11:12;;;;;;;2.20;1.45;;;22.50;81.00;;;;;;4998096;28;20448;-78
2022/08/13 05:13:38;;;;;;;1.95;1.30;;;22.50;81.00;;;;;;5015756;28;20018;-77
2022/08/13 05:16:06;;;;;;;1.92;1.50;;;22.50;80.90;;;;;;5016399;28;20022;-77
2022/08/13 05:18:34;;;;;;;1.80;1.40;;;22.50;80.90;;;;;;5016069;28;20125;-78
2022/08/13 05:21:03;;;;;;;2.03;1.35;;;22.50;80.90;;;;;;5015386;28;20424;-78
2022/08/13 05:23:30;;;;;;;2.85;1.60;;;22.50;80.90;;;;;;4998493;28;20041;-78
2022/08/13 05:25:58;;;;;;;2.78;1.65;;;22.50;81.00;;;;;;5014464;28;20493;-77
2022/08/13 05:28:24;;;;;;;1.60;1.38;;;22.40;80.90;;;;;;5015629;28;20022;-78
2022/08/13 05:30:49;;;;;;;2.65;1.48;;;22.40;80.90;;;;;;4997508;28;20018;-78
2022/08/13 05:33:20;;;;;;;2.72;1.80;;;22.40;80.90;;;;;;5015175;28;20100;-77
2022/08/13 05:35:48;;;;;;;2.72;1.70;;;22.40;80.90;;;;;;5015183;28;20110;-78
2022/08/13 05:38:15;;;;;;;2.05;1.40;;;22.40;80.90;;;;;;5015090;28;20033;-78
2022/08/13 05:40:42;;;;;;;2.38;1.45;;;22.40;80.90;;;;;;4998272;28;20088;-79
2022/08/13 05:43:19;;;;;;;2.33;1.50;;;22.40;80.90;;;;;;5015240;28;20034;-78
2022/08/13 05:46:09;;;;;;;1.60;1.30;;;22.50;80.90;;;;;;5014391;28;20026;-78
2022/08/13 05:48:40;;;;;;;2.92;1.50;;;22.40;80.80;;;;;;5009556;28;20041;-78
2022/08/13 05:51:12;;;;;;;4.25;1.65;;;22.50;80.90;;;;;;5014447;28;20033;-78
2022/08/13 05:53:38;;;;;;;2.85;1.77;;;22.50;80.30;;;;;;5015804;28;20026;-78
2022/08/13 05:56:05;;;;;;;2.88;1.58;;;22.50;80.60;;;;;;5015163;28;20022;-77
2022/08/13 05:58:31;;;;;;;2.92;1.58;;;22.50;80.40;;;;;;5015131;28;20076;-78
2022/08/13 06:03:42;;;;;;;2.88;1.77;;;22.60;80.10;;;;;;5015188;28;20540;-78
2022/08/13 06:06:10;;;;;;;3.30;1.60;;;22.60;80.10;;;;;;5015348;28;20029;-78
2022/08/13 06:08:41;;;;;;;3.13;1.50;;;22.50;80.10;;;;;;5014804;28;20101;-78
2022/08/13 06:11:16;;;;;;;2.53;1.70;;;22.60;80.00;;;;;;5014615;28;20022;-78
2022/08/13 06:13:43;;;;;;;3.15;1.50;;;22.50;79.80;;;;;;5015076;28;20368;-78
2022/08/13 06:16:11;;;;;;;4.35;1.50;;;22.50;79.80;;;;;;4997269;28;20061;-78
2022/08/13 06:18:40;;;;;;;2.85;1.38;;;22.60;79.50;;;;;;5014530;28;20048;-78
2022/08/13 06:21:09;;;;;;;3.70;1.60;;;22.60;79.60;;;;;;4996795;28;20097;-77
2022/08/13 06:23:36;;;;;;;3.00;1.70;;;22.60;79.80;;;;;;4996847;28;20030;-78
2022/08/13 06:26:08;;;;;;;3.47;1.50;;;22.60;79.60;;;;;;5014754;28;20189;-78
2022/08/13 06:28:35;;;;;;;3.30;1.60;;;22.60;79.60;;;;;;5015191;28;20030;-77
2022/08/13 06:31:07;;;;;;;3.15;1.65;;;22.60;79.80;;;;;;5013603;28;20022;-78
2022/08/13 06:33:34;;;;;;;;;;;22.60;79.90;;;;;;4997006;28;20022;-78
2022/08/13 06:36:02;;;;;;;3.80;1.70;;;22.70;79.90;;;;;;4996903;28;19906;-78
2022/08/13 06:38:44;;;;;;;3.83;1.77;;;22.60;79.70;;;;;;4996789;28;20030;-77
2022/08/13 06:41:12;;;;;;;2.72;1.60;;;22.70;79.70;;;;;;4999443;28;20050;-78
2022/08/13 06:43:40;;;;;;;2.00;1.50;;;22.70;79.50;;;;;;5001579;28;20113;-78
2022/08/13 06:46:07;;;;;;;3.03;1.60;;;22.80;79.50;;;;;;5018762;28;20026;-78
2022/08/13 06:48:34;;;;;;;3.17;1.73;;;22.80;79.20;;;;;;5016569;28;20528;-78
2022/08/13 06:51:05;;;;;;;1.80;1.40;;;22.80;79.20;;;;;;4997577;28;20507;-78
2022/08/13 06:53:32;;;;;;;3.05;1.80;;;22.80;79.10;;;;;;5015039;28;20025;-76
2022/08/13 06:55:58;;;;;;;1.83;1.50;;;22.80;79.00;;;;;;4997282;28;20049;-78
2022/08/13 06:58:29;;;;;;;3.45;1.50;;;22.80;79.20;;;;;;4997214;28;20030;-78
2022/08/13 07:00:56;;;;;;;3.40;1.67;;;22.80;78.90;;;;;;5014177;28;20552;-77
2022/08/13 07:03:30;;;;;;;2.95;1.70;;;22.80;78.80;;;;;;4996353;28;20591;-78
2022/08/13 07:08:13;;;;;;;4.10;1.80;;;22.80;78.50;;;;;;5050263;27;20303;-80
2022/08/13 07:10:44;;;;;;;4.25;1.88;;;23.00;78.90;;;;;;5054224;28;20097;-80
2022/08/13 07:13:14;;;;;;;5.35;1.90;;;22.90;79.70;;;;;;5118807;27;20074;-80
2022/08/13 07:19:28;;;;;;;5.45;1.98;;;22.90;78.70;;;;;;5050317;28;20090;-83
2022/08/13 07:22:02;;;;;;;6.65;2.00;;;22.90;78.40;;;;;;5032365;28;20029;-82
2022/08/13 07:28:10;;;;;;;;;;;;;;;;;;;;;
2022/08/13 07:31:06;;;;;;;;;;;;;;;;;;;;;
2022/08/13 07:34:29;;;;;;;4.00;1.77;;;23.20;77.70;;;;;;5049217;28;20093;-83
2022/08/13 07:36:56;;;;;;;3.55;1.90;;;23.10;77.50;;;;;;5099227;27;20037;-82
2022/08/13 07:39:22;;;;;;;6.03;2.10;;;23.30;77.40;;;;;;5118872;27;20544;-83
2022/08/13 07:41:49;;;;;;;5.78;2.17;;;23.10;77.30;;;;;;5121112;27;20143;-81
2022/08/13 07:44:53;;;;;;;6.10;2.33;;;23.10;77.50;;;;;;5118522;27;20053;-82
2022/08/13 07:47:32;;;;;;;5.57;2.15;;;23.10;77.50;;;;;;5049818;27;20532;-84
2022/08/13 07:50:10;;;;;;;5.57;2.05;;;23.10;76.90;;;;;;5118130;27;20040;-84
2022/08/13 07:52:41;;;;;;;5.47;2.05;;;24.30;77.90;;;;;;5119378;27;20059;-82
2022/08/13 07:55:09;;;;;;;3.45;2.03;;;23.10;77.10;;;;;;5047581;27;20030;-85
2022/08/13 07:57:36;;;;;;;5.00;2.45;;;23.60;77.30;;;;;;5039335;27;20034;-81
2022/08/13 08:00:21;;;;;;;5.68;2.47;;;23.20;77.00;;;;;;5097709;28;20030;-81
2022/08/13 08:02:52;;;;;;;6.07;2.40;;;23.20;77.00;;;;;;5034053;28;20022;-82
2022/08/13 08:05:20;;;;;;;6.00;2.42;;;23.20;76.90;;;;;;5037283;28;20085;-82
2022/08/13 08:07:47;;;;;;;4.35;2.40;;;23.30;77.00;;;;;;5035940;28;20095;-82
2022/08/13 08:10:12;;;;;;;5.38;2.15;;;23.30;77.00;;;;;;5035666;28;20503;-82
2022/08/13 08:12:38;;;;;;;4.75;2.45;;;23.30;76.80;;;;;;5104501;28;20022;-82
2022/08/13 08:15:08;;;;;;;6.18;2.42;;;23.40;76.80;;;;;;5035380;28;20716;-85
2022/08/13 08:17:34;;;;;;;4.50;2.50;;;23.40;76.60;;;;;;5026944;28;20439;-81
2022/08/13 08:19:59;;;;;;;6.75;2.40;;;23.50;76.60;;;;;;5084180;28;20029;-81
2022/08/13 08:22:26;;;;;;;5.03;2.50;;;23.50;76.50;;;;;;5086235;28;20030;-80
2022/08/13 08:24:52;;;;;;;5.72;2.75;;;23.50;76.40;;;;;;5017249;28;20026;-82
2022/08/13 08:27:20;;;;;;;4.38;2.55;;;23.50;76.50;;;;;;5083305;28;20548;-81
2022/08/13 08:29:46;;;;;;;6.25;2.45;;;23.50;76.70;;;;;;5083294;28;20079;-79
2022/08/13 08:32:13;;;;;;;5.78;2.70;;;23.50;76.70;;;;;;5016619;28;20014;-81
2022/08/13 08:34:44;;;;;;;6.57;2.60;;;23.50;76.80;;;;;;5015715;28;20026;-80
2022/08/13 08:42:35;;;;;;;6.63;2.80;;;23.50;76.90;;;;;;5016088;28;20022;-81
2022/08/13 08:42:51;;;;;;;5.40;2.45;;;23.50;76.90;;;;;;5016354;28;20094;-82
2022/08/13 08:45:19;;;;;;;6.47;2.75;;;23.60;77.00;;;;;;5019126;28;20054;-82
2022/08/13 08:47:45;;;;;;;4.90;2.67;;;23.60;76.90;;;;;;5087163;28;20026;-82
2022/08/13 08:50:11;;;;;;;5.47;2.63;;;23.60;77.00;;;;;;5017585;28;20078;-82
2022/08/13 08:55:24;;;;;;;5.90;2.90;;;23.60;76.90;;;;;;5017807;28;20033;-82
2022/08/13 08:57:51;;;;;;;5.07;2.22;;;23.70;76.90;;;;;;5085479;28;20469;-83
2022/08/13 09:00:18;;;;;;;5.88;2.47;;;23.70;76.80;;;;;;5083936;28;20121;-80
2022/08/13 09:02:47;;;;;;;5.70;2.78;;;23.80;76.70;;;;;;5016560;28;20041;-81
2022/08/13 09:05:16;;;;;;;5.90;2.60;;;23.80;76.60;;;;;;5016375;28;20030;-81
2022/08/13 09:07:45;;;;;;;5.60;2.65;;;23.80;76.40;;;;;;5083809;28;20033;-82
2022/08/13 09:10:13;;;;;;;5.00;2.47;;;23.80;76.40;;;;;;5082441;28;20401;-81
2022/08/13 09:12:42;;;;;;;5.05;2.58;;;23.80;76.60;;;;;;5083262;28;20018;-82
2022/08/13 09:15:10;;;;;;;4.43;2.60;;;23.80;76.80;;;;;;5083283;28;20033;-81
2022/08/13 09:17:37;;;;;;;5.22;2.67;;;23.80;76.90;;;;;;5083454;28;20033;-80
2022/08/13 09:20:21;;;;;;;3.80;2.50;;;23.80;77.00;;;;;;5014770;28;20109;-81
2022/08/13 09:22:58;;;;;;;4.65;2.40;;;23.80;77.00;;;;;;5014901;28;20587;-80
2022/08/13 09:25:26;;;;;;;5.18;2.58;;;23.80;76.90;;;;;;5082876;28;20129;-81
2022/08/13 09:27:53;;;;;;;5.40;2.47;;;23.80;77.00;;;;;;5082458;28;20496;-81
2022/08/13 09:30:19;;;;;;;4.45;2.50;;;23.80;77.00;;;;;;5013058;28;20488;-81
2022/08/13 09:32:46;;;;;;;4.75;2.60;;;23.80;76.90;;;;;;5082500;28;20056;-82
2022/08/13 09:35:12;;;;;;;6.03;2.85;;;23.80;77.00;;;;;;5014577;28;20042;-81
2022/08/13 09:37:39;;;;;;;4.57;2.40;;;23.80;76.90;;;;;;5082546;28;20485;-81
2022/08/13 09:40:12;;;;;;;4.25;2.20;;;23.80;76.90;;;;;;5013963;28;20445;-81
2022/08/13 09:42:59;;;;;;;4.50;2.53;;;23.80;76.80;;;;;;5014468;28;20049;-81
2022/08/13 09:45:25;;;;;;;3.15;2.33;;;23.90;77.00;;;;;;5016262;28;20030;-82
2022/08/13 09:47:52;;;;;;;3.38;2.20;;;23.90;76.90;;;;;;5085818;28;20041;-82
2022/08/13 09:50:21;;;;;;;3.80;2.33;;;24.00;76.80;;;;;;5017023;28;20026;-82
2022/08/13 09:52:47;;;;;;;3.92;2.45;;;24.00;76.80;;;;;;5085019;28;20026;-81
2022/08/13 09:55:12;;;;;;;3.53;2.22;;;24.00;76.70;;;;;;5084480;28;20040;-83
2022/08/13 09:57:48;;;;;;;5.57;2.50;;;24.00;76.70;;;;;;5084673;28;20138;-82
2022/08/13 10:00:20;;;;;;;4.55;2.38;;;24.00;76.70;;;;;;5083532;28;20026;-81
2022/08/13 10:02:48;;;;;;;5.32;2.65;;;23.90;76.90;;;;;;5016082;28;20022;-81
2022/08/13 10:05:14;;;;;;;4.13;2.47;;;23.90;76.90;;;;;;5016515;28;20057;-82
2022/08/13 10:07:40;;;;;;;5.05;2.30;;;23.90;77.20;;;;;;5014941;28;20462;-81
2022/08/13 10:10:07;;;;;;;4.60;2.38;;;23.80;77.20;;;;;;5015189;28;20026;-81
2022/08/13 10:12:33;;;;;;;4.70;2.38;;;23.80;77.30;;;;;;5015209;28;20018;-81
2022/08/13 10:14:58;;;;;;;4.40;2.50;;;23.80;77.30;;;;;;5082695;28;20022;-82
2022/08/13 10:17:25;;;;;;;4.35;2.42;;;23.90;77.30;;;;;;5081994;28;20040;-82
2022/08/13 10:19:51;;;;;;;3.70;2.42;;;23.90;77.20;;;;;;5081234;28;20030;-81
2022/08/13 10:22:16;;;;;;;5.10;2.22;;;23.90;77.10;;;;;;5081574;28;20030;-81
2022/08/13 10:24:42;;;;;;;3.75;2.17;;;24.00;77.10;;;;;;5082009;28;20557;-81
2022/08/13 10:27:07;;;;;;;3.97;2.33;;;23.90;77.10;;;;;;5013857;28;20101;-82
2022/08/13 10:29:33;;;;;;;4.70;2.60;;;23.90;77.20;;;;;;5081105;28;20045;-81
2022/08/13 10:31:58;;;;;;;3.95;2.00;;;23.80;77.20;;;;;;5081569;28;20025;-81
2022/08/13 10:34:24;;;;;;;5.20;2.50;;;23.90;77.20;;;;;;5081210;28;20026;-81
2022/08/13 10:36:50;;;;;;;3.72;2.30;;;23.90;77.20;;;;;;5013872;28;20396;-81
2022/08/13 10:39:15;;;;;;;3.35;2.05;;;24.00;77.20;;;;;;5081378;28;20026;-81
2022/08/13 10:41:43;;;;;;;4.75;2.28;;;24.00;77.00;;;;;;5080396;28;20037;-81
2022/08/13 10:44:09;;;;;;;3.50;2.17;;;24.00;76.90;;;;;;5082596;28;20055;-82
2022/08/13 10:46:35;;;;;;;3.80;2.25;;;24.00;76.80;;;;;;5026965;28;20049;-81
2022/08/13 10:49:01;;;;;;;3.25;2.10;;;24.00;76.80;;;;;;5107785;27;20032;-82
2022/08/13 10:51:28;;;;;;;4.25;2.13;;;24.00;76.90;;;;;;5029048;28;20053;-82
2022/08/13 10:53:58;;;;;;;3.83;2.10;;;24.00;77.00;;;;;;5103620;27;20034;-82
2022/08/13 10:56:30;;;;;;;3.97;2.20;;;24.00;77.00;;;;;;5095926;28;20021;-82
2022/08/13 10:58:57;;;;;;;2.92;2.10;;;24.00;77.10;;;;;;5118680;28;20454;-82
2022/08/13 11:01:24;;;;;;;3.47;2.00;;;24.00;77.10;;;;;;5105297;28;20025;-84
2022/08/13 11:03:58;;;;;;;3.80;2.25;;;24.00;77.00;;;;;;5089084;28;20029;-82
2022/08/13 11:06:27;;;;;;;3.08;2.10;;;24.00;77.00;;;;;;5098985;28;20150;-82
2022/08/13 11:08:54;;;;;;;3.05;2.00;;;24.00;77.00;;;;;;5028063;28;20029;-81
2022/08/13 11:11:21;;;;;;;3.72;2.10;;;24.00;77.10;;;;;;5053013;28;20033;-83
2022/08/13 11:13:47;;;;;;;5.20;2.13;;;24.00;77.10;;;;;;5021956;28;20033;-81
2022/08/13 11:19:00;;;;;;;3.83;2.10;;;24.00;77.10;;;;;;5024437;28;20041;-81
2022/08/13 11:21:25;;;;;;;4.97;2.10;;;24.00;77.10;;;;;;5106839;28;20024;-79
2022/08/13 11:23:52;;;;;;;3.20;2.10;;;24.00;77.10;;;;;;5103517;28;20037;-82
2022/08/13 11:26:18;;;;;;;4.82;2.13;;;24.00;77.00;;;;;;5101618;28;20117;-83
2022/08/13 11:28:44;;;;;;;4.68;2.42;;;24.00;77.00;;;;;;5034084;28;20049;-82
2022/08/13 11:31:09;;;;;;;4.03;2.30;;;24.00;77.00;;;;;;5033407;28;20026;-82
2022/08/13 11:33:35;;;;;;;4.00;2.15;;;24.00;77.20;;;;;;5033530;28;20029;-83
2022/08/13 11:36:00;;;;;;;4.93;2.10;;;23.90;77.20;;;;;;5101683;28;20063;-82
2022/08/13 11:38:26;;;;;;;3.30;2.08;;;23.90;77.40;;;;;;5101242;28;20024;-82
2022/08/13 11:40:56;;;;;;;3.40;2.17;;;23.80;77.60;;;;;;5100932;28;20033;-83
2022/08/13 11:43:24;;;;;;;3.00;1.90;;;23.80;77.60;;;;;;5032902;28;20484;-82
2022/08/13 11:45:50;;;;;;;3.08;2.08;;;23.80;77.60;;;;;;5104529;28;20032;-81
2022/08/13 11:48:17;;;;;;;3.65;2.05;;;23.80;77.90;;;;;;5090394;28;20017;-81
2022/08/13 11:50:42;;;;;;;4.90;2.40;;;23.80;78.00;;;;;;5024000;28;20021;-81
2022/08/13 11:53:08;;;;;;;4.38;2.38;;;23.70;77.90;;;;;;5066957;28;20492;-81
2022/08/13 11:55:33;;;;;;;2.97;2.10;;;23.70;78.10;;;;;;5104489;28;20021;-81
2022/08/13 11:58:07;;;;;;;4.30;2.20;;;23.70;78.10;;;;;;5036036;28;20081;-82
2022/08/13 12:00:35;;;;;;;3.65;2.22;;;23.70;78.10;;;;;;5035939;28;20043;-83
2022/08/13 12:03:00;;;;;;;4.78;2.40;;;23.70;78.20;;;;;;5035296;28;20502;-82
2022/08/13 12:05:26;;;;;;;3.67;2.08;;;23.70;78.20;;;;;;5104465;28;20057;-83
2022/08/13 12:07:52;;;;;;;3.45;2.00;;;23.80;78.20;;;;;;5035229;28;20037;-82
2022/08/13 12:10:18;;;;;;;3.30;2.03;;;23.80;78.10;;;;;;5034735;28;20022;-82
2022/08/13 12:12:44;;;;;;;2.90;2.10;;;23.80;78.00;;;;;;5121369;27;20031;-81
2022/08/13 12:15:10;;;;;;;3.08;1.95;;;23.80;77.90;;;;;;5121306;27;20111;-82
2022/08/13 12:17:35;;;;;;;3.00;1.83;;;23.80;77.80;;;;;;5139650;27;20027;-82
2022/08/13 12:20:01;;;;;;;3.75;2.05;;;23.80;77.80;;;;;;5139703;27;20119;-82
2022/08/13 12:22:26;;;;;;;4.78;2.00;;;23.80;77.90;;;;;;5139579;27;20027;-82
2022/08/13 12:24:52;;;;;;;3.88;2.17;;;23.80;78.00;;;;;;5139185;27;20027;-81
2022/08/13 12:27:18;;;;;;;3.10;2.00;;;23.80;78.10;;;;;;5120790;27;20025;-81
2022/08/13 12:29:44;;;;;;;3.42;2.17;;;23.70;78.10;;;;;;5120233;27;20409;-81
2022/08/13 12:32:09;;;;;;;3.13;2.20;;;23.70;78.10;;;;;;5121323;27;20015;-81
2022/08/13 12:34:37;;;;;;;3.05;2.05;;;23.80;78.30;;;;;;5102387;27;20026;-81
2022/08/13 12:37:02;;;;;;;3.35;2.08;;;23.70;78.20;;;;;;5117485;27;20029;-82
2022/08/13 12:39:28;;;;;;;3.80;2.38;;;23.70;78.40;;;;;;5092826;28;20045;-81
2022/08/13 12:41:53;;;;;;;3.03;2.13;;;23.60;78.30;;;;;;5102610;28;20260;-81
2022/08/13 12:44:19;;;;;;;3.10;2.15;;;23.70;78.40;;;;;;5015326;28;20445;-82
2022/08/13 12:46:46;;;;;;;3.42;2.20;;;23.70;78.50;;;;;;5094936;27;20053;-83
2022/08/13 12:49:11;;;;;;;3.75;2.30;;;23.70;79.10;;;;;;5031416;28;20083;-82
2022/08/13 12:51:37;;;;;;;3.88;2.10;;;23.70;78.50;;;;;;5113092;27;20031;-83
2022/08/13 12:54:02;;;;;;;3.55;2.00;;;23.70;78.60;;;;;;5056607;27;20061;-82
2022/08/13 12:56:28;;;;;;;3.13;2.22;;;23.70;78.40;;;;;;5126539;27;20024;-83
2022/08/13 12:58:53;;;;;;;4.57;2.30;;;23.70;78.40;;;;;;5095268;27;20026;-82
2022/08/13 13:01:19;;;;;;;4.38;2.50;;;23.70;78.20;;;;;;5131062;27;20046;-82
2022/08/13 13:03:44;;;;;;;3.45;2.03;;;23.70;78.20;;;;;;5122464;27;20054;-82
2022/08/13 13:06:10;;;;;;;2.95;2.15;;;23.70;78.30;;;;;;5141088;27;20027;-82
2022/08/13 13:08:36;;;;;;;3.53;2.20;;;23.70;78.40;;;;;;5112258;27;20021;-81
2022/08/13 13:11:05;;;;;;;3.10;2.25;;;23.70;78.50;;;;;;5032486;28;20022;-82
2022/08/13 13:13:33;;;;;;;3.40;2.17;;;23.60;78.50;;;;;;5105351;27;20059;-82
2022/08/13 13:15:59;;;;;;;4.57;2.20;;;23.60;78.70;;;;;;5104411;27;20052;-82
2022/08/13 13:18:26;;;;;;;3.08;1.90;;;23.60;78.60;;;;;;5029082;28;20519;-81
2022/08/13 13:20:53;;;;;;;3.50;2.42;;;23.60;78.70;;;;;;5115133;27;20039;-83
2022/08/13 13:23:21;;;;;;;3.92;2.30;;;23.60;78.90;;;;;;5062300;27;20026;-79
2022/08/13 13:25:48;;;;;;;4.15;2.50;;;23.50;78.90;;;;;;5097216;27;20017;-82
2022/08/13 13:28:16;;;;;;;4.97;2.30;;;23.60;78.90;;;;;;5107703;27;20070;-81